Time;durP1;ratioP1;P1;durP2;ratioP2;P2;SDS_P1;SDS_P2;PMS_P1;PMS_P2;Temp;Humidity;BMP_temperature;BMP_pressure;BME280_temperature;BME280_humidity;BME280_pressure;Samples;Min_cycle;Max_cycle;Signal;HPM_P1;HPM_P2
2022/10/19 00:01:07;;;;;;;17.75;14.07;;;;;;;22.41;59.93;101814.09;5119528;28;20050;-85
2022/10/19 00:03:35;;;;;;;16.17;13.05;;;;;;;22.41;59.91;101814.09;5120383;28;20051;-87
2022/10/19 00:06:33;;;;;;;15.82;13.00;;;;;;;22.41;59.91;101806.84;5119299;28;20043;-86
2022/10/19 00:09:07;;;;;;;17.45;13.18;;;;;;;22.41;59.85;101814.09;5098661;28;20055;-87
2022/10/19 00:11:37;;;;;;;14.10;12.63;;;;;;;22.41;59.77;101814.09;5100300;28;20053;-85
2022/10/19 00:14:06;;;;;;;17.42;12.90;;;;;;;22.40;59.87;101809.66;5118827;28;20054;-85
2022/10/19 00:16:36;;;;;;;15.40;12.50;;;;;;;22.41;59.87;101819.47;5117895;28;20043;-85
2022/10/19 00:19:08;;;;;;;17.85;13.70;;;;;;;22.40;59.92;101815.94;5118946;28;20044;-85
2022/10/19 00:21:35;;;;;;;14.68;12.73;;;;;;;22.41;59.77;101819.47;5099745;28;20052;-89
2022/10/19 00:24:03;;;;;;;15.30;13.20;;;;;;;22.40;59.76;101815.94;5099324;28;20542;-84
2022/10/19 00:26:30;;;;;;;15.02;13.10;;;;;;;22.39;59.68;101816.88;5117999;28;20048;-84
2022/10/19 00:28:59;;;;;;;16.45;13.57;;;;;;;22.40;59.62;101817.75;5098860;28;20066;-84
2022/10/19 00:31:26;;;;;;;13.85;12.45;;;;;;;22.39;59.78;101821.44;5118529;28;20046;-84
2022/10/19 00:33:55;;;;;;;14.15;12.65;;;;;;;22.40;59.57;101817.75;5117612;28;20402;-84
2022/10/19 00:36:25;;;;;;;16.38;14.30;;;;;;;22.39;59.62;101816.03;5118063;28;20051;-84
2022/10/19 00:38:54;;;;;;;17.33;13.73;;;;;;;22.40;59.59;101812.34;5100273;28;20044;-84
2022/10/19 00:41:24;;;;;;;14.13;12.52;;;;;;;22.38;59.71;101808.94;5100001;28;20517;-84
2022/10/19 00:44:01;;;;;;;14.55;13.07;;;;;;;22.39;59.59;101806.09;5118019;28;20384;-84
2022/10/19 00:46:32;;;;;;;14.95;13.15;;;;;;;22.39;59.57;101794.47;5117676;28;20051;-84
2022/10/19 00:49:03;;;;;;;15.88;13.35;;;;;;;22.37;59.48;101786.50;5117788;28;20047;-86
2022/10/19 00:51:39;;;;;;;17.90;13.60;;;;;;;22.38;59.46;101790.06;5118263;28;20459;-86
2022/10/19 00:54:08;;;;;;;15.43;13.15;;;;;;;22.38;59.39;101790.06;5118126;28;20055;-86
2022/10/19 00:56:39;;;;;;;14.77;12.65;;;;;;;22.38;59.44;101792.75;5098907;28;20491;-86
2022/10/19 00:59:08;;;;;;;15.38;13.00;;;;;;;22.38;59.49;101803.53;5117449;28;20047;-86
2022/10/19 01:01:36;;;;;;;15.05;13.45;;;;;;;22.37;59.37;101799.13;5100051;28;20475;-86
2022/10/19 01:04:04;;;;;;;15.27;12.82;;;;;;;22.38;59.53;101792.75;5100161;28;20067;-87
2022/10/19 01:06:32;;;;;;;16.75;13.50;;;;;;;22.38;59.33;101787.34;5117465;28;20052;-87
2022/10/19 01:08:59;;;;;;;15.60;12.60;;;;;;;22.36;59.29;101778.53;5099649;28;20063;-88
2022/10/19 01:11:44;;;;;;;15.10;12.20;;;;;;;22.37;59.31;101783.81;5117853;28;20044;-86
2022/10/19 01:14:49;;;;;;;14.23;11.93;;;;;;;22.35;59.40;101776.81;5117113;28;20066;-86
2022/10/19 01:17:28;;;;;;;14.48;12.95;;;;;;;22.38;59.45;101773.88;5098734;28;20078;-85
2022/10/19 01:20:02;;;;;;;16.08;13.48;;;;;;;22.36;59.25;101774.00;5117330;28;20040;-85
2022/10/19 01:23:09;;;;;;;15.73;13.30;;;;;;;22.36;59.17;101767.72;5099448;28;20360;-84
2022/10/19 01:25:51;;;;;;;16.70;12.65;;;;;;;22.36;59.24;101762.34;5097965;28;20047;-84
2022/10/19 01:28:30;;;;;;;15.67;13.97;;;;;;;22.36;59.30;101765.03;5116772;28;20044;-84
2022/10/19 01:31:00;;;;;;;16.20;13.27;;;;;;;22.35;59.27;101761.47;5117083;28;20051;-84
2022/10/19 01:34:27;;;;;;;17.95;12.82;;;;;;;22.35;59.20;101756.09;5117340;28;20051;-85
2022/10/19 01:37:05;;;;;;;14.98;13.00;;;;;;;22.35;59.05;101757.94;5034311;28;20505;-84
2022/10/19 01:39:58;;;;;;;13.73;12.20;;;;;;;22.36;59.08;101770.41;5033787;28;20057;-84
2022/10/19 01:42:43;;;;;;;15.45;12.70;;;;;;;22.35;59.15;101758.78;5033825;28;20054;-84
2022/10/19 01:45:24;;;;;;;14.70;13.18;;;;;;;22.36;59.01;101762.34;5018177;28;20145;-85
2022/10/19 01:47:58;;;;;;;15.93;11.93;;;;;;;22.35;58.97;101756.09;5034484;28;20068;-84
2022/10/19 01:50:39;;;;;;;16.85;13.00;;;;;;;22.34;58.96;101754.38;5034269;28;20052;-86
2022/10/19 01:53:09;;;;;;;17.13;12.40;;;;;;;22.33;59.05;101755.38;5034750;28;20054;-87
2022/10/19 01:55:42;;;;;;;14.18;12.50;;;;;;;22.34;59.00;101750.84;5034904;28;20053;-86
2022/10/19 01:58:15;;;;;;;14.68;13.00;;;;;;;22.34;58.89;101750.84;5017181;28;20045;-86
2022/10/19 02:00:45;;;;;;;17.10;13.07;;;;;;;22.33;58.98;101751.81;5034714;28;20077;-86
2022/10/19 02:03:14;;;;;;;14.38;12.57;;;;;;;22.34;58.99;101751.69;5016851;28;20471;-86
2022/10/19 02:05:43;;;;;;;14.45;12.95;;;;;;;22.34;58.96;101750.84;5033929;28;20445;-86
2022/10/19 02:08:21;;;;;;;14.77;13.18;;;;;;;22.33;58.95;101744.59;5089002;28;20051;-86
2022/10/19 02:10:49;;;;;;;14.30;12.82;;;;;;;22.33;58.82;101749.13;5116610;28;20048;-86
2022/10/19 02:13:19;;;;;;;14.15;12.65;;;;;;;22.32;58.90;101740.19;5116652;28;20055;-88
2022/10/19 02:15:50;;;;;;;16.85;14.13;;;;;;;22.31;58.90;101732.19;5099289;28;20044;-89
2022/10/19 02:18:27;;;;;;;14.98;12.57;;;;;;;22.33;59.00;101732.94;5098041;28;20495;-87
2022/10/19 02:20:54;;;;;;;13.80;12.13;;;;;;;22.32;58.95;101736.59;5117013;28;20055;-88
2022/10/19 02:23:26;;;;;;;17.58;13.10;;;;;;;22.32;58.95;101728.50;5116427;28;20439;-88
2022/10/19 02:25:55;;;;;;;14.85;12.27;;;;;;;22.32;58.86;101723.09;5116448;28;20047;-88
2022/10/19 02:28:27;;;;;;;15.95;12.23;;;;;;;22.32;58.93;101725.81;5099515;28;20039;-87
2022/10/19 02:30:55;;;;;;;16.42;13.82;;;;;;;22.30;59.07;101728.66;5116966;28;20054;-87
2022/10/19 02:33:22;;;;;;;15.90;13.82;;;;;;;22.30;58.83;101727.78;5116179;28;20529;-87
2022/10/19 02:35:50;;;;;;;15.27;12.98;;;;;;;22.31;58.75;101726.81;5116605;28;20111;-88
2022/10/19 02:38:21;;;;;;;13.40;12.00;;;;;;;22.31;58.67;101721.41;5098049;28;20044;-87
2022/10/19 02:41:17;;;;;;;14.13;12.63;;;;;;;22.31;58.74;101721.41;5115973;28;20052;-87
2022/10/19 02:43:50;;;;;;;13.43;12.07;;;;;;;22.31;58.85;101722.25;5112243;28;20392;-88
2022/10/19 02:46:24;;;;;;;14.35;12.43;;;;;;;22.31;58.74;101727.66;5097290;28;20059;-88
2022/10/19 02:48:53;;;;;;;12.77;11.43;;;;;;;22.30;58.85;101715.16;5116173;28;20040;-84
2022/10/19 02:51:38;;;;;;;13.68;12.30;;;;;;;22.30;58.73;101719.69;5115149;28;20403;-85
2022/10/19 02:54:07;;;;;;;14.27;12.55;;;;;;;22.28;58.78;101714.44;5115364;28;20047;-85
2022/10/19 02:56:34;;;;;;;15.57;13.25;;;;;;;22.29;58.67;101712.59;5114946;28;20044;-86
2022/10/19 02:59:02;;;;;;;15.98;12.77;;;;;;;22.29;58.57;101712.59;5096228;28;20048;-86
2022/10/19 03:01:29;;;;;;;14.68;11.65;;;;;;;22.29;58.67;101710.75;5097248;28;20487;-86
2022/10/19 03:03:57;;;;;;;13.57;12.18;;;;;;;22.30;58.75;101714.31;5115106;28;20509;-86
2022/10/19 03:06:24;;;;;;;16.48;12.70;;;;;;;22.29;58.42;101712.59;5097159;28;20055;-87
2022/10/19 03:08:51;;;;;;;15.13;13.57;;;;;;;22.27;58.56;101718.09;5115721;28;20512;-87
2022/10/19 03:11:19;;;;;;;13.95;12.30;;;;;;;22.29;58.68;101713.44;5097366;28;20043;-87
2022/10/19 03:13:46;;;;;;;14.73;12.35;;;;;;;22.28;58.43;101718.97;5115323;28;20046;-87
2022/10/19 03:16:18;;;;;;;14.03;12.63;;;;;;;22.28;58.50;101716.25;5115980;28;20368;-87
2022/10/19 03:18:47;;;;;;;13.52;12.23;;;;;;;22.28;58.65;101718.97;5115254;28;20039;-87
2022/10/19 03:21:15;;;;;;;13.70;12.10;;;;;;;22.28;58.71;101732.44;5115714;28;20071;-87
2022/10/19 03:23:42;;;;;;;14.85;12.65;;;;;;;22.27;58.65;101728.91;5096479;28;20398;-89
2022/10/19 03:26:13;;;;;;;13.25;11.70;;;;;;;22.27;58.64;101734.28;5080406;28;20052;-88
2022/10/19 03:28:41;;;;;;;13.98;12.52;;;;;;;22.26;58.68;101724.50;5079727;28;20047;-88
2022/10/19 03:31:08;;;;;;;15.27;12.82;;;;;;;22.26;58.54;101719.09;5116013;28;20062;-89
2022/10/19 03:33:36;;;;;;;13.75;12.35;;;;;;;22.27;58.57;101726.19;5114980;28;20050;-88
2022/10/19 03:36:22;;;;;;;13.85;12.20;;;;;;;22.25;58.71;101722.78;5114606;28;20040;-88
2022/10/19 03:38:53;;;;;;;14.90;12.55;;;;;;;22.26;58.65;101727.19;5115286;28;20039;-88
2022/10/19 03:41:23;;;;;;;12.85;11.35;;;;;;;22.27;58.59;101722.66;5079879;28;20047;-85
2022/10/19 03:43:50;;;;;;;13.23;10.98;;;;;;;22.25;58.62;101713.84;5115397;28;20471;-87
2022/10/19 03:46:18;;;;;;;13.90;12.10;;;;;;;22.25;58.61;101716.53;5114363;28;20044;-87
2022/10/19 03:48:46;;;;;;;12.75;11.48;;;;;;;22.26;58.77;101720.94;5114350;28;20394;-86
2022/10/19 03:51:19;;;;;;;14.27;11.25;;;;;;;22.26;58.68;101718.25;5114851;28;20483;-86
2022/10/19 03:53:46;;;;;;;;;;;;;;;22.25;58.62;101722.78;5114752;28;20051;-87
2022/10/19 03:56:16;;;;;;;12.90;11.48;;;;;;;22.26;58.68;101720.94;5096762;28;19927;-87
2022/10/19 03:58:45;;;;;;;13.07;11.43;;;;;;;22.24;58.76;101714.81;5114830;28;20048;-86
2022/10/19 04:01:21;;;;;;;13.88;12.35;;;;;;;22.24;58.78;101714.81;5097118;28;20059;-89
2022/10/19 04:03:56;;;;;;;11.98;10.77;;;;;;;22.23;58.62;101724.75;5095808;28;20411;-87
2022/10/19 04:06:27;;;;;;;12.98;11.68;;;;;;;22.24;58.59;101714.81;5114527;28;20051;-88
2022/10/19 04:08:55;;;;;;;15.55;12.57;;;;;;;22.26;58.79;101726.34;5114667;28;20047;-85
2022/10/19 04:11:28;;;;;;;13.10;11.73;;;;;;;22.25;58.73;101727.34;5114188;28;20048;-85
2022/10/19 04:13:57;;;;;;;15.07;13.20;;;;;;;22.24;58.53;101720.19;5114681;28;20046;-85
2022/10/19 04:16:26;;;;;;;14.50;11.65;;;;;;;22.25;58.68;101719.25;5114679;28;20060;-85
2022/10/19 04:18:54;;;;;;;14.55;11.75;;;;;;;22.23;58.55;101723.91;5114069;28;20040;-85
2022/10/19 04:21:30;;;;;;;13.10;11.77;;;;;;;22.23;58.53;101724.75;5095020;28;20043;-85
2022/10/19 04:24:01;;;;;;;13.65;12.25;;;;;;;22.23;58.45;101713.09;5114603;28;20044;-87
2022/10/19 04:26:29;;;;;;;13.77;11.35;;;;;;;22.24;58.55;101722.91;5096960;28;20039;-88
2022/10/19 04:28:57;;;;;;;13.63;12.23;;;;;;;22.21;58.45;101724.88;5095737;28;20051;-88
2022/10/19 04:31:26;;;;;;;12.63;11.07;;;;;;;22.23;58.46;101721.19;5096313;28;20052;-88
2022/10/19 04:33:54;;;;;;;14.00;11.52;;;;;;;22.23;58.48;101727.44;5095631;28;20048;-87
2022/10/19 04:36:23;;;;;;;13.57;11.77;;;;;;;22.21;58.43;101719.50;5114068;28;20043;-86
2022/10/19 04:38:51;;;;;;;14.75;12.13;;;;;;;22.20;58.53;101712.41;5114060;28;20047;-85
2022/10/19 04:41:37;;;;;;;12.52;11.18;;;;;;;22.21;58.45;101715.94;5113802;28;20055;-85
2022/10/19 04:44:07;;;;;;;12.52;11.13;;;;;;;22.19;58.33;101710.66;5113768;28;20051;-85
2022/10/19 04:46:36;;;;;;;14.50;12.65;;;;;;;22.23;58.43;101713.09;5116849;28;20484;-84
2022/10/19 04:49:06;;;;;;;13.80;11.88;;;;;;;22.20;58.33;101708.81;5117929;28;20043;-85
2022/10/19 04:51:34;;;;;;;12.75;10.75;;;;;;;22.21;58.48;101715.94;5117607;28;20051;-86
2022/10/19 04:54:03;;;;;;;14.95;11.50;;;;;;;22.19;58.27;101713.34;5117760;28;20059;-87
2022/10/19 04:56:33;;;;;;;13.55;12.10;;;;;;;22.20;58.18;101706.13;5099068;28;20051;-88
2022/10/19 04:59:01;;;;;;;15.73;12.15;;;;;;;22.21;58.31;101713.25;5082262;28;20058;-87
2022/10/19 05:01:29;;;;;;;12.85;11.18;;;;;;;22.21;58.42;101715.94;5117675;28;20047;-88
2022/10/19 05:03:59;;;;;;;13.88;12.32;;;;;;;22.18;58.34;101710.81;5117728;28;20052;-87
2022/10/19 05:06:28;;;;;;;13.20;11.68;;;;;;;22.18;58.29;101714.34;5117278;28;20449;-87
2022/10/19 05:08:55;;;;;;;13.57;11.30;;;;;;;22.19;58.42;101709.81;5098196;28;20066;-86
2022/10/19 05:11:22;;;;;;;14.32;12.20;;;;;;;22.20;58.45;101706.13;5117305;28;20048;-90
2022/10/19 05:13:53;;;;;;;13.95;11.85;;;;;;;22.20;58.26;101708.81;5102140;28;20048;-90
2022/10/19 05:16:22;;;;;;;13.00;11.52;;;;;;;22.19;58.38;101712.50;5102664;28;20372;-89
2022/10/19 05:18:51;;;;;;;13.82;12.43;;;;;;;22.18;58.40;101714.34;5100447;28;20058;-89
2022/10/19 05:21:20;;;;;;;13.80;12.25;;;;;;;22.18;58.30;101708.09;5119607;28;20355;-88
2022/10/19 05:23:51;;;;;;;13.48;11.48;;;;;;;22.18;58.38;101705.41;5118407;28;20425;-89
2022/10/19 05:26:21;;;;;;;13.73;11.95;;;;;;;22.18;58.30;101703.56;5099867;28;20039;-89
2022/10/19 05:28:58;;;;;;;14.90;12.23;;;;;;;22.17;58.27;101709.09;5100095;28;20050;-90
2022/10/19 05:31:27;;;;;;;15.30;11.55;;;;;;;22.17;58.04;101704.56;5100682;28;20067;-91
2022/10/19 05:33:56;;;;;;;16.15;12.90;;;;;;;22.17;58.16;101701.84;5085894;28;20067;-91
2022/10/19 05:36:33;;;;;;;15.88;12.70;;;;;;;22.17;58.21;101709.94;5108029;28;20054;-92
2022/10/19 05:39:04;;;;;;;14.50;12.40;;;;;;;22.16;58.07;101710.94;5122757;28;20383;-92
2022/10/19 05:41:32;;;;;;;15.13;12.60;;;;;;;22.16;58.12;101713.63;5084245;28;20056;-93
2022/10/19 05:44:00;;;;;;;15.50;13.10;;;;;;;22.17;58.09;101718.03;5083233;28;20058;-93
2022/10/19 05:46:29;;;;;;;17.73;13.18;;;;;;;22.17;58.11;101711.78;5099473;28;20052;-91
2022/10/19 05:48:57;;;;;;;14.55;12.07;;;;;;;22.17;58.09;101712.66;5120567;28;20058;-90
2022/10/19 05:51:28;;;;;;;16.17;12.73;;;;;;;22.15;58.15;101714.59;5100848;28;20058;-90
2022/10/19 05:53:55;;;;;;;14.82;12.25;;;;;;;22.16;58.15;101716.34;5119275;28;20047;-91
2022/10/19 05:56:25;;;;;;;18.40;13.00;;;;;;;22.16;57.99;101715.44;5100621;28;20051;-91
2022/10/19 05:58:55;;;;;;;13.73;12.32;;;;;;;22.14;57.89;101706.66;5117773;28;20039;-90
2022/10/19 06:01:23;;;;;;;12.20;10.90;;;;;;;22.16;57.97;101712.75;5117542;28;20044;-91
2022/10/19 06:03:52;;;;;;;14.63;11.98;;;;;;;22.17;58.07;101712.66;5099864;28;20040;-91
2022/10/19 06:06:21;;;;;;;13.55;11.40;;;;;;;22.16;57.89;101713.63;5099111;28;20483;-90
2022/10/19 06:08:49;;;;;;;14.30;12.43;;;;;;;22.15;58.05;101706.50;5117978;28;20040;-88
2022/10/19 06:11:22;;;;;;;15.38;11.65;;;;;;;22.17;57.84;101719.88;5116967;28;20050;-87
2022/10/19 06:13:52;;;;;;;14.50;11.82;;;;;;;22.15;57.97;101714.59;5119141;28;20496;-91
2022/10/19 06:16:20;;;;;;;13.70;12.25;;;;;;;22.15;57.98;101717.28;5119601;28;20050;-90
2022/10/19 06:18:47;;;;;;;15.70;11.55;;;;;;;22.16;57.98;101719.03;5099662;28;20058;-89
2022/10/19 06:21:17;;;;;;;17.20;12.95;;;;;;;22.15;57.97;101714.59;5118858;28;20052;-89
2022/10/19 06:23:52;;;;;;;14.45;11.13;;;;;;;22.16;57.97;101715.44;5084241;28;20514;-89
2022/10/19 06:26:20;;;;;;;13.32;11.75;;;;;;;22.15;58.07;101717.28;5101027;28;20074;-91
2022/10/19 06:28:48;;;;;;;22.92;16.83;;;;;;;22.15;56.69;101721.84;5099880;28;20055;-88
2022/10/19 06:31:16;;;;;;;28.23;21.85;;;;;;;22.10;54.94;101724.03;5100041;28;20516;-88
2022/10/19 06:33:44;;;;;;;30.63;21.48;;;;;;;22.04;54.78;101733.50;5099706;28;20434;-88
2022/10/19 06:36:19;;;;;;;29.05;21.88;;;;;;;21.97;54.71;101741.25;5100688;28;20055;-88
2022/10/19 06:38:46;;;;;;;29.50;23.38;;;;;;;21.93;54.52;101747.03;5118096;28;20043;-88
2022/10/19 06:41:14;;;;;;;25.77;21.00;;;;;;;21.88;54.78;101750.09;5098036;28;20047;-88
2022/10/19 06:43:42;;;;;;;30.90;22.83;;;;;;;21.87;54.75;101750.22;5099259;28;20515;-89
2022/10/19 06:46:16;;;;;;;28.98;20.52;;;;;;;21.82;54.88;101752.44;5117115;28;20050;-92
2022/10/19 06:48:43;;;;;;;28.52;22.58;;;;;;;21.79;54.69;101749.97;5098835;28;20078;-90
2022/10/19 06:51:12;;;;;;;29.83;22.30;;;;;;;21.78;54.96;101750.97;5117298;28;20044;-91
2022/10/19 06:53:39;;;;;;;28.00;22.02;;;;;;;21.75;54.77;101748.50;5117402;28;20463;-89
2022/10/19 06:56:07;;;;;;;29.00;23.10;;;;;;;21.72;55.00;101753.19;5081983;28;20549;-89
2022/10/19 06:58:38;;;;;;;26.77;20.83;;;;;;;21.70;55.39;101755.13;5098201;28;20052;-84
2022/10/19 07:01:06;;;;;;;30.10;21.77;;;;;;;21.71;55.65;101766.78;5137517;27;20046;-86
2022/10/19 07:03:35;;;;;;;25.35;19.75;;;;;;;21.70;56.05;101760.53;5120369;27;20043;-85
2022/10/19 07:06:05;;;;;;;27.60;21.65;;;;;;;21.72;55.99;101765.81;5138811;27;20051;-94
2022/10/19 07:08:34;;;;;;;31.13;23.00;;;;;;;21.71;55.68;101764.06;5101549;27;20047;-94
2022/10/19 07:11:05;;;;;;;29.00;22.45;;;;;;;21.73;55.60;101771.06;5119924;27;20104;-93
2022/10/19 07:13:32;;;;;;;30.83;22.70;;;;;;;21.70;55.35;101765.91;5136473;27;20043;-87
2022/10/19 07:16:05;;;;;;;32.15;23.92;;;;;;;21.69;55.47;101763.38;5136755;27;20042;-90
2022/10/19 07:18:33;;;;;;;;;;;;;;;21.70;55.70;101765.91;5138251;27;20047;-87
2022/10/19 07:21:04;;;;;;;27.50;22.00;;;;;;;21.70;55.81;101765.91;5136380;27;19926;-88
2022/10/19 07:23:33;;;;;;;29.05;21.95;;;;;;;21.72;55.83;101766.66;5136692;27;20055;-86
2022/10/19 07:26:12;;;;;;;30.85;22.20;;;;;;;21.71;55.90;101764.06;5117635;27;20051;-92
2022/10/19 07:28:42;;;;;;;27.30;21.08;;;;;;;21.73;55.92;101773.75;5118743;27;20101;-91
2022/10/19 07:31:12;;;;;;;23.65;20.17;;;;;;;21.76;56.04;101766.44;5118102;27;20413;-90
2022/10/19 07:33:39;;;;;;;26.73;17.83;;;;;;;21.77;55.89;101766.28;5119225;27;20054;-90
2022/10/19 07:36:09;;;;;;;27.85;18.63;;;;;;;21.81;55.96;101775.00;5137224;27;20054;-87
2022/10/19 07:38:36;;;;;;;22.98;17.33;;;;;;;21.83;56.28;101770.31;5136617;27;20043;-86
2022/10/19 07:41:11;;;;;;;20.38;14.93;;;;;;;21.86;56.35;101772.75;5135771;27;20502;-88
2022/10/19 07:43:40;;;;;;;21.20;16.25;;;;;;;21.87;56.28;101771.78;5136058;27;20054;-86
2022/10/19 07:46:12;;;;;;;21.30;15.75;;;;;;;21.87;56.37;101771.78;5100783;27;20062;-87
2022/10/19 07:48:39;;;;;;;19.85;15.52;;;;;;;21.89;56.13;101773.38;5136696;27;20051;-89
2022/10/19 07:51:08;;;;;;;19.23;15.25;;;;;;;21.91;56.13;101779.47;5137089;27;20038;-84
2022/10/19 07:53:37;;;;;;;18.25;13.95;;;;;;;21.90;56.21;101767.00;5135931;27;20051;-93
2022/10/19 07:56:10;;;;;;;22.27;14.25;;;;;;;21.91;56.30;101774.09;5101437;28;20058;-92
2022/10/19 07:58:39;;;;;;;21.65;14.02;;;;;;;21.93;56.36;101782.06;5117651;28;20066;-90
2022/10/19 08:01:24;;;;;;;20.75;14.80;;;;;;;21.95;56.35;101780.09;5100178;28;20043;-89
2022/10/19 08:03:54;;;;;;;22.52;14.02;;;;;;;21.96;56.57;101771.03;5136706;28;20047;-95
2022/10/19 08:06:41;;;;;;;18.10;12.57;;;;;;;21.97;56.53;101772.75;5121267;28;20062;-92
2022/10/19 08:09:09;;;;;;;17.02;12.35;;;;;;;21.97;56.66;101770.03;5118983;28;20039;-93
2022/10/19 08:11:48;;;;;;;15.13;12.00;;;;;;;22.02;56.94;101777.75;5120821;28;20051;-88
2022/10/19 08:14:16;;;;;;;13.60;10.82;;;;;;;22.02;56.94;101772.38;5117523;28;20047;-88
2022/10/19 08:16:43;;;;;;;20.20;12.43;;;;;;;22.05;57.04;101774.81;5135932;28;20059;-87
2022/10/19 08:19:13;;;;;;;14.85;11.55;;;;;;;22.05;56.98;101772.97;5136487;28;20043;-94
2022/10/19 08:21:44;;;;;;;14.55;11.32;;;;;;;22.06;57.09;101766.59;5119826;27;20053;-92
2022/10/19 08:24:13;;;;;;;17.00;11.07;;;;;;;22.08;57.10;101770.03;5140201;27;20051;-93
2022/10/19 08:26:41;;;;;;;15.68;12.88;;;;;;;22.09;56.73;101769.03;5140099;27;20051;-95
2022/10/19 08:29:17;;;;;;;16.38;12.38;;;;;;;22.11;56.88;101776.97;5122614;27;20062;-90
2022/10/19 08:31:47;;;;;;;18.52;13.95;;;;;;;22.10;56.77;101762.66;5143278;27;20051;-94
2022/10/19 08:34:15;;;;;;;20.02;13.95;;;;;;;22.11;56.91;101767.06;5122067;27;20047;-87
2022/10/19 08:36:42;;;;;;;19.83;14.00;;;;;;;22.12;56.80;101767.91;5140764;27;20043;-90
2022/10/19 08:39:11;;;;;;;20.27;15.27;;;;;;;22.15;56.88;101765.00;5137938;27;20104;-84
2022/10/19 08:41:38;;;;;;;21.45;15.02;;;;;;;22.15;57.03;101762.28;5142701;27;20023;-90
2022/10/19 08:44:29;;;;;;;14.68;12.50;;;;;;;22.16;57.08;101753.22;5141160;27;20055;-80
2022/10/19 08:47:34;;;;;;;20.23;13.77;;;;;;;22.17;57.25;101758.50;5115464;27;20047;-89
2022/10/19 08:50:13;;;;;;;18.42;12.98;;;;;;;22.17;57.47;101752.25;5141417;27;20043;-93
2022/10/19 08:52:42;;;;;;;16.15;12.32;;;;;;;22.20;57.60;101754.66;5140017;27;20047;-86
2022/10/19 08:55:14;;;;;;;16.38;13.48;;;;;;;22.18;57.32;101757.50;5138286;27;20051;-86
2022/10/19 08:57:59;;;;;;;20.52;13.50;;;;;;;22.20;57.53;101752.84;5120837;27;20054;-88
2022/10/19 09:00:41;;;;;;;19.52;14.73;;;;;;;22.20;57.65;101751.97;5138503;27;20054;-90
2022/10/19 09:03:13;;;;;;;20.52;14.63;;;;;;;22.21;57.79;101749.16;5139406;27;20051;-85
2022/10/19 09:06:11;;;;;;;19.13;14.00;;;;;;;22.21;57.78;101754.56;5139539;27;20055;-90
2022/10/19 09:08:39;;;;;;;20.33;14.27;;;;;;;22.23;57.78;101756.25;5121258;27;20054;-88
2022/10/19 09:11:09;;;;;;;19.48;13.50;;;;;;;22.24;58.01;101757.97;5139281;27;20058;-93
2022/10/19 09:13:44;;;;;;;16.95;12.18;;;;;;;22.24;57.88;101758.84;5139748;27;20066;-93
2022/10/19 09:16:33;;;;;;;20.98;12.77;;;;;;;22.25;57.80;101760.56;5142148;27;20047;-94
2022/10/19 09:19:02;;;;;;;19.05;12.82;;;;;;;22.28;57.86;101764.81;5121330;27;20046;-91
2022/10/19 09:21:49;;;;;;;15.80;12.48;;;;;;;22.27;57.93;101755.03;5138717;27;20047;-91
2022/10/19 09:24:28;;;;;;;19.63;12.43;;;;;;;22.29;57.96;101761.16;5140569;27;20051;-85
2022/10/19 09:26:59;;;;;;;15.85;12.52;;;;;;;22.29;58.00;101755.75;5139975;27;20054;-94
2022/10/19 09:29:50;;;;;;;14.30;12.80;;;;;;;22.29;58.18;101750.38;5121882;27;20519;-89
2022/10/19 09:32:39;;;;;;;16.65;12.88;;;;;;;22.31;58.09;101751.09;5138101;27;20059;-89
2022/10/19 09:35:34;;;;;;;14.20;11.82;;;;;;;22.30;58.09;101741.28;5136568;27;20055;-88
2022/10/19 09:38:04;;;;;;;15.20;12.02;;;;;;;22.32;58.23;101742.00;5138110;27;20379;-94
2022/10/19 09:40:33;;;;;;;15.77;12.88;;;;;;;22.33;58.18;101741.88;5137737;27;20047;-89
2022/10/19 09:43:18;;;;;;;15.65;12.00;;;;;;;22.32;58.03;101740.19;5139741;27;20035;-91
2022/10/19 09:45:57;;;;;;;18.75;13.57;;;;;;;22.33;58.11;101739.19;5141793;27;20047;-94
2022/10/19 09:48:25;;;;;;;12.55;10.98;;;;;;;22.34;58.23;101732.78;5139703;27;20402;-91
2022/10/19 09:50:57;;;;;;;14.98;12.65;;;;;;;22.35;58.17;101745.28;5139060;27;20062;-86
2022/10/19 09:53:25;;;;;;;17.45;13.57;;;;;;;22.36;58.23;101740.75;5138806;27;20506;-88
2022/10/19 09:56:05;;;;;;;16.00;13.00;;;;;;;22.36;58.24;101735.34;5138484;27;20050;-94
2022/10/19 09:58:33;;;;;;;15.43;13.48;;;;;;;22.36;58.24;101733.53;5120953;27;20058;-90
2022/10/19 10:01:02;;;;;;;14.77;12.48;;;;;;;22.36;58.35;101735.34;5137487;27;20050;-93
2022/10/19 10:03:38;;;;;;;17.70;13.05;;;;;;;22.38;58.35;101736.94;5120150;27;20062;-85
2022/10/19 10:06:07;;;;;;;17.70;13.23;;;;;;;22.37;58.38;101735.25;5138393;27;20058;-93
2022/10/19 10:08:57;;;;;;;16.75;14.30;;;;;;;22.37;58.49;101729.84;5119601;27;20533;-89
2022/10/19 10:11:36;;;;;;;25.80;12.75;;;;;;;22.39;58.49;101735.09;5138406;27;20043;-89
2022/10/19 10:14:22;;;;;;;16.65;13.00;;;;;;;22.39;58.62;101729.72;5136691;27;20062;-93
2022/10/19 10:16:55;;;;;;;17.73;13.60;;;;;;;22.39;58.59;101718.91;5138591;27;20078;-88
2022/10/19 10:19:27;;;;;;;17.67;13.98;;;;;;;22.41;58.48;101727.75;5138284;27;20058;-88
2022/10/19 10:21:56;;;;;;;17.83;14.00;;;;;;;22.41;58.63;101733.16;5135815;27;20047;-84
2022/10/19 10:24:26;;;;;;;18.65;14.73;;;;;;;22.41;58.46;101719.66;5137226;27;20487;-87
2022/10/19 10:27:00;;;;;;;22.40;15.57;;;;;;;22.42;58.63;101718.66;5137826;27;20047;-89
2022/10/19 10:29:35;;;;;;;19.52;15.60;;;;;;;22.42;58.53;101715.97;5138586;27;20051;-88
2022/10/19 10:32:08;;;;;;;19.60;15.93;;;;;;;22.42;58.60;101710.56;5138516;27;20043;-87
2022/10/19 10:34:35;;;;;;;23.73;18.67;;;;;;;22.42;58.48;101718.66;5136503;27;20054;-93
2022/10/19 10:37:22;;;;;;;20.23;15.70;;;;;;;22.42;58.49;101711.41;5141080;27;20054;-92
2022/10/19 10:39:52;;;;;;;19.05;15.23;;;;;;;22.42;58.42;101708.72;5120162;27;20059;-89
2022/10/19 10:42:28;;;;;;;19.10;16.58;;;;;;;22.44;58.48;101714.84;5136515;27;20062;-84
2022/10/19 10:44:58;;;;;;;21.05;16.65;;;;;;;22.43;58.58;101709.56;5137266;27;20409;-92
2022/10/19 10:47:27;;;;;;;20.02;16.70;;;;;;;22.44;58.60;101704.06;5118803;27;20051;-85
2022/10/19 10:50:04;;;;;;;17.50;15.63;;;;;;;22.43;58.65;101696.06;5136349;27;20051;-88
2022/10/19 10:52:32;;;;;;;20.58;17.35;;;;;;;22.44;58.87;101687.00;5137900;27;20043;-92
2022/10/19 10:55:16;;;;;;;21.08;16.60;;;;;;;22.44;58.54;101682.47;5119419;27;20124;-87
2022/10/19 10:57:49;;;;;;;24.55;17.27;;;;;;;22.45;58.53;101678.78;5137381;27;20047;-88
2022/10/19 11:00:19;;;;;;;25.23;17.48;;;;;;;22.46;58.67;101679.63;5137576;27;20479;-85
2022/10/19 11:03:08;;;;;;;24.67;17.58;;;;;;;22.47;58.64;101684.03;5137005;27;20043;-91
2022/10/19 11:05:41;;;;;;;20.92;16.75;;;;;;;22.46;58.68;101677.78;5136830;27;20050;-81
2022/10/19 11:08:26;;;;;;;21.00;17.05;;;;;;;22.46;58.55;101672.41;5136065;27;20051;-88
2022/10/19 11:11:08;;;;;;;25.92;20.25;;;;;;;22.46;58.55;101666.16;5137561;27;20475;-90
2022/10/19 11:17:45;;;;;;;23.88;17.75;;;;;;;22.49;58.68;101665.88;5117418;28;20047;-93
2022/10/19 11:20:15;;;;;;;22.55;18.75;;;;;;;22.48;58.46;101660.59;5133071;27;20050;-90
2022/10/19 11:22:56;;;;;;;24.58;19.23;;;;;;;22.49;58.55;101660.50;5101348;27;20047;-87
2022/10/19 11:25:34;;;;;;;26.20;19.80;;;;;;;22.48;58.71;101653.34;5136956;27;20065;-86
2022/10/19 11:28:53;;;;;;;23.70;17.25;;;;;;;22.49;58.53;101648.84;5137349;27;20049;-87
2022/10/19 11:31:49;;;;;;;24.27;19.10;;;;;;;22.48;58.49;101645.25;5075932;27;20063;-86
2022/10/19 11:34:35;;;;;;;24.33;17.63;;;;;;;22.48;58.61;101647.13;5098516;28;20056;-86
2022/10/19 11:37:09;;;;;;;26.65;20.27;;;;;;;22.49;58.81;101638.06;5098536;28;20429;-85
2022/10/19 11:40:04;;;;;;;27.95;20.95;;;;;;;22.47;58.62;101638.16;5098914;28;20048;-86